sensor_id;sensor_type;location;lat;lon;timestamp;P1;durP1;ratioP1;P2;durP2;ratioP2
41693;SDS011;27377;50.666;9.150;2024-01-11T00:00:09;55.47;;;28.13;;
41693;SDS011;27377;50.666;9.150;2024-01-11T00:03:00;56.67;;;29.23;;
41693;SDS011;27377;50.666;9.150;2024-01-11T00:05:49;57.67;;;28.63;;
41693;SDS011;27377;50.666;9.150;2024-01-11T00:08:45;56.42;;;28.95;;
41693;SDS011;27377;50.666;9.150;2024-01-11T00:11:30;60.13;;;29.15;;
41693;SDS011;27377;50.666;9.150;2024-01-11T00:14:20;57.95;;;29.52;;
41693;SDS011;27377;50.666;9.150;2024-01-11T00:17:11;58.42;;;28.55;;
41693;SDS011;27377;50.666;9.150;2024-01-11T00:20:06;56.55;;;28.25;;
41693;SDS011;27377;50.666;9.150;2024-01-11T00:22:59;55.45;;;28.88;;
41693;SDS011;27377;50.666;9.150;2024-01-11T00:25:53;58.67;;;29.15;;
41693;SDS011;27377;50.666;9.150;2024-01-11T00:28:51;58.92;;;29.70;;
41693;SDS011;27377;50.666;9.150;2024-01-11T00:31:44;60.63;;;29.77;;
41693;SDS011;27377;50.666;9.150;2024-01-11T00:34:45;57.87;;;29.27;;
41693;SDS011;27377;50.666;9.150;2024-01-11T00:37:41;61.15;;;29.60;;
41693;SDS011;27377;50.666;9.150;2024-01-11T00:40:35;57.57;;;29.30;;
41693;SDS011;27377;50.666;9.150;2024-01-11T00:43:28;56.13;;;29.10;;
41693;SDS011;27377;50.666;9.150;2024-01-11T00:46:18;59.40;;;28.73;;
41693;SDS011;27377;50.666;9.150;2024-01-11T00:49:08;57.78;;;29.05;;
41693;SDS011;27377;50.666;9.150;2024-01-11T00:52:17;61.47;;;29.87;;
41693;SDS011;27377;50.666;9.150;2024-01-11T00:55:07;57.40;;;29.27;;
41693;SDS011;27377;50.666;9.150;2024-01-11T00:57:57;60.70;;;29.95;;
41693;SDS011;27377;50.666;9.150;2024-01-11T01:00:45;61.90;;;31.20;;
41693;SDS011;27377;50.666;9.150;2024-01-11T01:03:43;60.17;;;30.25;;
41693;SDS011;27377;50.666;9.150;2024-01-11T01:06:41;57.30;;;30.17;;
41693;SDS011;27377;50.666;9.150;2024-01-11T01:09:37;60.38;;;29.45;;
41693;SDS011;27377;50.666;9.150;2024-01-11T01:12:25;59.67;;;29.67;;
41693;SDS011;27377;50.666;9.150;2024-01-11T01:15:14;62.27;;;30.33;;
41693;SDS011;27377;50.666;9.150;2024-01-11T01:17:59;62.42;;;30.83;;
41693;SDS011;27377;50.666;9.150;2024-01-11T01:20:52;62.15;;;31.35;;
41693;SDS011;27377;50.666;9.150;2024-01-11T01:23:37;65.05;;;31.73;;
41693;SDS011;27377;50.666;9.150;2024-01-11T01:26:28;64.30;;;31.67;;
41693;SDS011;27377;50.666;9.150;2024-01-11T01:29:23;62.67;;;31.93;;
41693;SDS011;27377;50.666;9.150;2024-01-11T01:32:13;64.22;;;31.42;;
41693;SDS011;27377;50.666;9.150;2024-01-11T01:35:03;62.10;;;31.10;;
41693;SDS011;27377;50.666;9.150;2024-01-11T01:37:48;70.13;;;33.00;;
41693;SDS011;27377;50.666;9.150;2024-01-11T01:40:36;67.20;;;32.25;;
41693;SDS011;27377;50.666;9.150;2024-01-11T01:43:33;67.10;;;32.95;;
41693;SDS011;27377;50.666;9.150;2024-01-11T01:46:23;68.30;;;33.53;;
41693;SDS011;27377;50.666;9.150;2024-01-11T01:49:12;70.07;;;33.55;;
41693;SDS011;27377;50.666;9.150;2024-01-11T01:51:57;65.72;;;33.78;;
41693;SDS011;27377;50.666;9.150;2024-01-11T01:54:41;67.18;;;33.60;;
41693;SDS011;27377;50.666;9.150;2024-01-11T01:57:26;63.60;;;33.67;;
41693;SDS011;27377;50.666;9.150;2024-01-11T02:00:11;67.47;;;34.30;;
41693;SDS011;27377;50.666;9.150;2024-01-11T02:02:57;67.93;;;33.83;;
41693;SDS011;27377;50.666;9.150;2024-01-11T02:05:42;69.78;;;34.13;;
41693;SDS011;27377;50.666;9.150;2024-01-11T02:08:26;66.75;;;33.83;;
41693;SDS011;27377;50.666;9.150;2024-01-11T02:11:11;65.32;;;32.63;;
41693;SDS011;27377;50.666;9.150;2024-01-11T02:13:55;66.50;;;33.72;;
41693;SDS011;27377;50.666;9.150;2024-01-11T02:16:41;70.78;;;34.30;;
41693;SDS011;27377;50.666;9.150;2024-01-11T02:19:24;68.38;;;33.90;;
41693;SDS011;27377;50.666;9.150;2024-01-11T02:22:11;68.05;;;32.95;;
41693;SDS011;27377;50.666;9.150;2024-01-11T02:25:04;68.80;;;33.80;;
41693;SDS011;27377;50.666;9.150;2024-01-11T02:27:48;66.45;;;33.63;;
41693;SDS011;27377;50.666;9.150;2024-01-11T02:30:33;65.60;;;32.50;;
41693;SDS011;27377;50.666;9.150;2024-01-11T02:33:18;70.05;;;34.22;;
41693;SDS011;27377;50.666;9.150;2024-01-11T02:36:02;67.63;;;33.42;;
41693;SDS011;27377;50.666;9.150;2024-01-11T02:38:46;72.15;;;35.05;;
41693;SDS011;27377;50.666;9.150;2024-01-11T02:41:32;70.70;;;34.63;;
41693;SDS011;27377;50.666;9.150;2024-01-11T02:44:16;65.45;;;33.25;;
41693;SDS011;27377;50.666;9.150;2024-01-11T02:47:00;68.13;;;33.58;;
41693;SDS011;27377;50.666;9.150;2024-01-11T02:49:44;67.78;;;33.65;;
41693;SDS011;27377;50.666;9.150;2024-01-11T02:52:28;69.72;;;34.30;;
41693;SDS011;27377;50.666;9.150;2024-01-11T02:55:12;68.80;;;33.77;;
41693;SDS011;27377;50.666;9.150;2024-01-11T02:57:56;68.78;;;34.17;;
41693;SDS011;27377;50.666;9.150;2024-01-11T03:00:40;67.43;;;33.40;;
41693;SDS011;27377;50.666;9.150;2024-01-11T03:03:24;72.32;;;35.55;;
41693;SDS011;27377;50.666;9.150;2024-01-11T03:06:08;66.82;;;33.72;;
41693;SDS011;27377;50.666;9.150;2024-01-11T03:08:52;72.28;;;34.78;;
41693;SDS011;27377;50.666;9.150;2024-01-11T03:11:36;69.30;;;33.88;;
41693;SDS011;27377;50.666;9.150;2024-01-11T03:14:21;69.75;;;34.45;;
41693;SDS011;27377;50.666;9.150;2024-01-11T03:17:05;71.28;;;34.72;;
41693;SDS011;27377;50.666;9.150;2024-01-11T03:19:49;69.25;;;36.33;;
41693;SDS011;27377;50.666;9.150;2024-01-11T03:22:33;71.97;;;35.60;;
41693;SDS011;27377;50.666;9.150;2024-01-11T03:25:17;73.32;;;36.22;;
41693;SDS011;27377;50.666;9.150;2024-01-11T03:28:02;71.93;;;36.08;;
41693;SDS011;27377;50.666;9.150;2024-01-11T03:30:47;73.27;;;36.80;;
41693;SDS011;27377;50.666;9.150;2024-01-11T03:33:31;70.32;;;36.63;;
41693;SDS011;27377;50.666;9.150;2024-01-11T03:36:15;73.65;;;35.97;;
41693;SDS011;27377;50.666;9.150;2024-01-11T03:38:59;73.43;;;36.25;;
41693;SDS011;27377;50.666;9.150;2024-01-11T03:41:43;71.75;;;36.00;;
41693;SDS011;27377;50.666;9.150;2024-01-11T03:44:28;70.78;;;34.88;;
41693;SDS011;27377;50.666;9.150;2024-01-11T03:47:12;69.68;;;35.67;;
41693;SDS011;27377;50.666;9.150;2024-01-11T03:49:56;74.05;;;35.70;;
41693;SDS011;27377;50.666;9.150;2024-01-11T03:52:41;74.72;;;35.92;;
41693;SDS011;27377;50.666;9.150;2024-01-11T03:55:26;72.93;;;35.28;;
41693;SDS011;27377;50.666;9.150;2024-01-11T03:58:10;71.83;;;36.30;;
41693;SDS011;27377;50.666;9.150;2024-01-11T04:00:54;78.00;;;37.53;;
41693;SDS011;27377;50.666;9.150;2024-01-11T04:03:38;72.93;;;36.75;;
41693;SDS011;27377;50.666;9.150;2024-01-11T04:06:22;72.25;;;36.67;;
41693;SDS011;27377;50.666;9.150;2024-01-11T04:09:07;71.65;;;36.50;;
41693;SDS011;27377;50.666;9.150;2024-01-11T04:11:51;73.70;;;35.60;;
41693;SDS011;27377;50.666;9.150;2024-01-11T04:14:39;71.00;;;34.72;;
41693;SDS011;27377;50.666;9.150;2024-01-11T04:17:24;69.93;;;35.83;;
41693;SDS011;27377;50.666;9.150;2024-01-11T04:20:08;74.72;;;36.90;;
41693;SDS011;27377;50.666;9.150;2024-01-11T04:22:52;71.22;;;36.17;;
41693;SDS011;27377;50.666;9.150;2024-01-11T04:25:36;75.32;;;36.83;;
41693;SDS011;27377;50.666;9.150;2024-01-11T04:28:20;76.93;;;37.63;;
41693;SDS011;27377;50.666;9.150;2024-01-11T04:31:04;77.50;;;38.03;;
41693;SDS011;27377;50.666;9.150;2024-01-11T04:33:47;74.90;;;37.38;;
41693;SDS011;27377;50.666;9.150;2024-01-11T04:36:32;78.50;;;37.65;;
41693;SDS011;27377;50.666;9.150;2024-01-11T04:39:16;76.68;;;36.97;;
41693;SDS011;27377;50.666;9.150;2024-01-11T04:42:00;76.15;;;37.03;;
41693;SDS011;27377;50.666;9.150;2024-01-11T04:44:44;79.07;;;38.88;;
41693;SDS011;27377;50.666;9.150;2024-01-11T04:47:28;77.28;;;37.80;;
41693;SDS011;27377;50.666;9.150;2024-01-11T04:50:12;71.10;;;37.45;;
41693;SDS011;27377;50.666;9.150;2024-01-11T04:52:56;78.55;;;38.67;;
41693;SDS011;27377;50.666;9.150;2024-01-11T04:55:40;80.57;;;38.90;;
41693;SDS011;27377;50.666;9.150;2024-01-11T04:58:24;79.75;;;39.00;;
41693;SDS011;27377;50.666;9.150;2024-01-11T05:01:12;79.38;;;38.92;;
41693;SDS011;27377;50.666;9.150;2024-01-11T05:03:57;78.88;;;38.83;;
41693;SDS011;27377;50.666;9.150;2024-01-11T05:06:41;81.32;;;39.28;;
41693;SDS011;27377;50.666;9.150;2024-01-11T05:09:25;79.70;;;38.65;;
41693;SDS011;27377;50.666;9.150;2024-01-11T05:12:09;81.77;;;39.40;;
41693;SDS011;27377;50.666;9.150;2024-01-11T05:14:53;78.43;;;38.25;;
41693;SDS011;27377;50.666;9.150;2024-01-11T05:17:37;76.50;;;38.50;;
41693;SDS011;27377;50.666;9.150;2024-01-11T05:20:21;81.32;;;38.83;;
41693;SDS011;27377;50.666;9.150;2024-01-11T05:23:05;75.63;;;38.30;;
41693;SDS011;27377;50.666;9.150;2024-01-11T05:25:50;78.35;;;37.67;;
41693;SDS011;27377;50.666;9.150;2024-01-11T05:28:34;81.87;;;38.50;;
41693;SDS011;27377;50.666;9.150;2024-01-11T05:31:18;77.05;;;38.15;;
41693;SDS011;27377;50.666;9.150;2024-01-11T05:34:02;78.13;;;38.78;;
41693;SDS011;27377;50.666;9.150;2024-01-11T05:36:46;77.60;;;37.72;;
41693;SDS011;27377;50.666;9.150;2024-01-11T05:39:30;78.30;;;38.40;;
41693;SDS011;27377;50.666;9.150;2024-01-11T05:42:15;82.95;;;40.00;;
41693;SDS011;27377;50.666;9.150;2024-01-11T05:45:00;78.63;;;37.60;;
41693;SDS011;27377;50.666;9.150;2024-01-11T05:47:44;76.85;;;38.03;;
41693;SDS011;27377;50.666;9.150;2024-01-11T05:50:28;78.53;;;38.15;;
41693;SDS011;27377;50.666;9.150;2024-01-11T05:53:12;77.93;;;38.20;;
41693;SDS011;27377;50.666;9.150;2024-01-11T05:55:56;75.45;;;37.88;;
41693;SDS011;27377;50.666;9.150;2024-01-11T05:58:40;77.00;;;37.17;;
41693;SDS011;27377;50.666;9.150;2024-01-11T06:01:24;78.75;;;38.58;;
41693;SDS011;27377;50.666;9.150;2024-01-11T06:04:08;78.60;;;38.13;;
41693;SDS011;27377;50.666;9.150;2024-01-11T06:06:52;76.05;;;38.42;;
41693;SDS011;27377;50.666;9.150;2024-01-11T06:09:36;83.47;;;39.30;;
41693;SDS011;27377;50.666;9.150;2024-01-11T06:12:20;78.60;;;37.00;;
41693;SDS011;27377;50.666;9.150;2024-01-11T06:15:04;78.55;;;38.03;;
41693;SDS011;27377;50.666;9.150;2024-01-11T06:18:03;83.22;;;38.70;;
41693;SDS011;27377;50.666;9.150;2024-01-11T06:20:48;79.10;;;38.03;;
41693;SDS011;27377;50.666;9.150;2024-01-11T06:23:36;76.13;;;37.53;;
41693;SDS011;27377;50.666;9.150;2024-01-11T06:26:27;76.80;;;37.28;;
41693;SDS011;27377;50.666;9.150;2024-01-11T06:29:19;75.70;;;37.47;;
41693;SDS011;27377;50.666;9.150;2024-01-11T06:32:09;80.37;;;38.57;;
41693;SDS011;27377;50.666;9.150;2024-01-11T06:34:58;75.32;;;36.78;;
41693;SDS011;27377;50.666;9.150;2024-01-11T06:37:46;76.70;;;38.50;;
41693;SDS011;27377;50.666;9.150;2024-01-11T06:40:36;77.63;;;37.83;;
41693;SDS011;27377;50.666;9.150;2024-01-11T06:43:29;81.55;;;39.20;;
41693;SDS011;27377;50.666;9.150;2024-01-11T06:46:18;80.28;;;38.88;;
41693;SDS011;27377;50.666;9.150;2024-01-11T06:49:09;77.43;;;38.17;;
41693;SDS011;27377;50.666;9.150;2024-01-11T06:51:53;78.07;;;38.13;;
41693;SDS011;27377;50.666;9.150;2024-01-11T06:54:37;77.78;;;38.58;;
41693;SDS011;27377;50.666;9.150;2024-01-11T06:57:21;77.13;;;37.77;;
41693;SDS011;27377;50.666;9.150;2024-01-11T07:00:06;77.60;;;37.58;;
41693;SDS011;27377;50.666;9.150;2024-01-11T07:02:51;77.72;;;36.25;;
41693;SDS011;27377;50.666;9.150;2024-01-11T07:05:41;80.90;;;38.63;;
41693;SDS011;27377;50.666;9.150;2024-01-11T07:08:33;80.40;;;38.45;;
41693;SDS011;27377;50.666;9.150;2024-01-11T07:11:17;82.38;;;38.92;;
41693;SDS011;27377;50.666;9.150;2024-01-11T07:14:01;78.80;;;38.40;;
41693;SDS011;27377;50.666;9.150;2024-01-11T07:16:50;83.13;;;38.40;;
41693;SDS011;27377;50.666;9.150;2024-01-11T07:19:34;85.95;;;39.72;;
41693;SDS011;27377;50.666;9.150;2024-01-11T07:22:24;91.35;;;40.25;;
41693;SDS011;27377;50.666;9.150;2024-01-11T07:25:08;85.15;;;38.90;;
41693;SDS011;27377;50.666;9.150;2024-01-11T07:27:53;84.20;;;39.90;;
41693;SDS011;27377;50.666;9.150;2024-01-11T07:30:37;85.20;;;40.70;;
41693;SDS011;27377;50.666;9.150;2024-01-11T07:33:21;89.27;;;39.90;;
41693;SDS011;27377;50.666;9.150;2024-01-11T07:36:08;87.45;;;41.05;;
41693;SDS011;27377;50.666;9.150;2024-01-11T07:39:19;77.53;;;38.13;;
41693;SDS011;27377;50.666;9.150;2024-01-11T07:42:09;78.65;;;39.10;;
41693;SDS011;27377;50.666;9.150;2024-01-11T07:44:53;77.53;;;38.83;;
41693;SDS011;27377;50.666;9.150;2024-01-11T07:47:37;83.03;;;41.13;;
41693;SDS011;27377;50.666;9.150;2024-01-11T07:50:22;82.03;;;41.17;;
41693;SDS011;27377;50.666;9.150;2024-01-11T07:53:06;79.55;;;39.70;;
41693;SDS011;27377;50.666;9.150;2024-01-11T07:55:51;83.05;;;39.72;;
41693;SDS011;27377;50.666;9.150;2024-01-11T07:58:38;84.05;;;40.45;;
41693;SDS011;27377;50.666;9.150;2024-01-11T08:01:25;79.65;;;39.45;;
41693;SDS011;27377;50.666;9.150;2024-01-11T08:04:09;79.10;;;39.50;;
41693;SDS011;27377;50.666;9.150;2024-01-11T08:06:57;78.57;;;39.53;;
41693;SDS011;27377;50.666;9.150;2024-01-11T08:09:47;78.47;;;38.60;;
41693;SDS011;27377;50.666;9.150;2024-01-11T08:12:37;78.53;;;39.33;;
41693;SDS011;27377;50.666;9.150;2024-01-11T08:15:21;77.53;;;37.87;;
41693;SDS011;27377;50.666;9.150;2024-01-11T08:18:05;79.50;;;38.92;;
41693;SDS011;27377;50.666;9.150;2024-01-11T08:20:49;78.28;;;37.05;;
41693;SDS011;27377;50.666;9.150;2024-01-11T08:23:34;74.30;;;37.28;;
41693;SDS011;27377;50.666;9.150;2024-01-11T08:26:17;78.35;;;38.97;;
41693;SDS011;27377;50.666;9.150;2024-01-11T08:29:02;78.88;;;37.88;;
41693;SDS011;27377;50.666;9.150;2024-01-11T08:31:48;77.33;;;39.30;;
41693;SDS011;27377;50.666;9.150;2024-01-11T08:34:32;72.47;;;36.10;;
41693;SDS011;27377;50.666;9.150;2024-01-11T08:37:16;80.57;;;39.72;;
41693;SDS011;27377;50.666;9.150;2024-01-11T08:40:00;80.13;;;40.25;;
41693;SDS011;27377;50.666;9.150;2024-01-11T08:42:44;78.22;;;39.40;;
41693;SDS011;27377;50.666;9.150;2024-01-11T08:45:28;76.18;;;38.45;;
41693;SDS011;27377;50.666;9.150;2024-01-11T08:48:13;82.05;;;39.83;;
41693;SDS011;27377;50.666;9.150;2024-01-11T08:50:58;79.63;;;40.22;;
41693;SDS011;27377;50.666;9.150;2024-01-11T08:53:41;77.03;;;40.20;;
41693;SDS011;27377;50.666;9.150;2024-01-11T08:56:26;84.53;;;40.25;;
41693;SDS011;27377;50.666;9.150;2024-01-11T08:59:09;76.07;;;39.70;;
41693;SDS011;27377;50.666;9.150;2024-01-11T09:01:53;77.18;;;39.70;;
41693;SDS011;27377;50.666;9.150;2024-01-11T09:04:37;79.80;;;39.63;;
41693;SDS011;27377;50.666;9.150;2024-01-11T09:07:21;80.00;;;38.63;;
41693;SDS011;27377;50.666;9.150;2024-01-11T09:10:06;75.65;;;38.70;;
41693;SDS011;27377;50.666;9.150;2024-01-11T09:12:52;75.57;;;38.57;;
41693;SDS011;27377;50.666;9.150;2024-01-11T09:15:37;72.63;;;37.00;;
41693;SDS011;27377;50.666;9.150;2024-01-11T09:18:21;77.03;;;38.10;;
41693;SDS011;27377;50.666;9.150;2024-01-11T09:21:06;73.22;;;37.83;;
41693;SDS011;27377;50.666;9.150;2024-01-11T09:23:51;78.15;;;39.00;;
41693;SDS011;27377;50.666;9.150;2024-01-11T09:26:35;73.00;;;37.23;;
41693;SDS011;27377;50.666;9.150;2024-01-11T09:29:20;75.28;;;39.00;;
41693;SDS011;27377;50.666;9.150;2024-01-11T09:32:04;75.38;;;38.30;;
41693;SDS011;27377;50.666;9.150;2024-01-11T09:34:48;76.03;;;38.50;;
41693;SDS011;27377;50.666;9.150;2024-01-11T09:37:34;79.40;;;40.97;;
41693;SDS011;27377;50.666;9.150;2024-01-11T09:40:18;82.25;;;41.35;;
41693;SDS011;27377;50.666;9.150;2024-01-11T09:43:03;83.00;;;41.90;;
41693;SDS011;27377;50.666;9.150;2024-01-11T09:45:48;80.07;;;42.03;;
41693;SDS011;27377;50.666;9.150;2024-01-11T09:48:34;81.73;;;42.27;;
41693;SDS011;27377;50.666;9.150;2024-01-11T09:51:20;78.95;;;41.53;;
41693;SDS011;27377;50.666;9.150;2024-01-11T09:54:05;81.50;;;42.58;;
41693;SDS011;27377;50.666;9.150;2024-01-11T09:56:51;85.07;;;41.35;;
41693;SDS011;27377;50.666;9.150;2024-01-11T09:59:36;78.38;;;41.13;;
41693;SDS011;27377;50.666;9.150;2024-01-11T10:02:22;79.15;;;39.80;;
41693;SDS011;27377;50.666;9.150;2024-01-11T10:05:07;78.53;;;39.45;;
41693;SDS011;27377;50.666;9.150;2024-01-11T10:07:51;77.53;;;39.25;;
41693;SDS011;27377;50.666;9.150;2024-01-11T10:10:35;76.78;;;38.92;;
41693;SDS011;27377;50.666;9.150;2024-01-11T10:13:21;78.63;;;39.78;;
41693;SDS011;27377;50.666;9.150;2024-01-11T10:16:12;78.07;;;39.47;;
41693;SDS011;27377;50.666;9.150;2024-01-11T10:18:59;76.65;;;38.65;;
41693;SDS011;27377;50.666;9.150;2024-01-11T10:21:43;74.77;;;39.03;;
41693;SDS011;27377;50.666;9.150;2024-01-11T10:24:27;71.65;;;38.20;;
41693;SDS011;27377;50.666;9.150;2024-01-11T10:27:11;67.75;;;35.97;;
41693;SDS011;27377;50.666;9.150;2024-01-11T10:29:55;68.05;;;36.03;;
41693;SDS011;27377;50.666;9.150;2024-01-11T10:32:40;67.93;;;35.33;;
41693;SDS011;27377;50.666;9.150;2024-01-11T10:35:25;66.40;;;35.50;;
41693;SDS011;27377;50.666;9.150;2024-01-11T10:38:09;66.75;;;35.80;;
41693;SDS011;27377;50.666;9.150;2024-01-11T10:40:54;61.55;;;33.15;;
41693;SDS011;27377;50.666;9.150;2024-01-11T10:43:39;63.65;;;34.00;;
41693;SDS011;27377;50.666;9.150;2024-01-11T10:46:24;61.50;;;32.53;;
41693;SDS011;27377;50.666;9.150;2024-01-11T10:49:09;62.28;;;33.28;;
41693;SDS011;27377;50.666;9.150;2024-01-11T10:51:58;65.40;;;33.42;;
41693;SDS011;27377;50.666;9.150;2024-01-11T10:54:44;62.50;;;33.38;;
41693;SDS011;27377;50.666;9.150;2024-01-11T10:57:29;61.85;;;32.85;;
41693;SDS011;27377;50.666;9.150;2024-01-11T11:00:16;60.20;;;32.60;;
41693;SDS011;27377;50.666;9.150;2024-01-11T11:03:02;63.65;;;32.58;;
41693;SDS011;27377;50.666;9.150;2024-01-11T11:05:48;60.38;;;32.85;;
41693;SDS011;27377;50.666;9.150;2024-01-11T11:08:36;57.50;;;31.30;;
41693;SDS011;27377;50.666;9.150;2024-01-11T11:11:21;60.75;;;32.13;;
41693;SDS011;27377;50.666;9.150;2024-01-11T11:14:06;59.47;;;32.05;;
41693;SDS011;27377;50.666;9.150;2024-01-11T11:16:51;62.00;;;32.03;;
41693;SDS011;27377;50.666;9.150;2024-01-11T11:19:36;59.55;;;32.78;;
41693;SDS011;27377;50.666;9.150;2024-01-11T11:22:20;59.33;;;31.93;;
41693;SDS011;27377;50.666;9.150;2024-01-11T11:25:11;62.38;;;32.00;;
41693;SDS011;27377;50.666;9.150;2024-01-11T11:28:08;58.38;;;32.10;;
41693;SDS011;27377;50.666;9.150;2024-01-11T11:30:54;58.50;;;31.52;;
41693;SDS011;27377;50.666;9.150;2024-01-11T11:33:41;58.10;;;30.92;;
41693;SDS011;27377;50.666;9.150;2024-01-11T11:36:28;56.55;;;30.55;;
41693;SDS011;27377;50.666;9.150;2024-01-11T11:39:13;57.28;;;30.90;;
41693;SDS011;27377;50.666;9.150;2024-01-11T11:41:57;55.28;;;30.58;;
41693;SDS011;27377;50.666;9.150;2024-01-11T11:44:48;54.80;;;29.02;;
41693;SDS011;27377;50.666;9.150;2024-01-11T11:47:33;53.85;;;29.48;;
41693;SDS011;27377;50.666;9.150;2024-01-11T11:50:21;54.88;;;29.02;;
41693;SDS011;27377;50.666;9.150;2024-01-11T11:53:05;56.97;;;29.25;;
41693;SDS011;27377;50.666;9.150;2024-01-11T11:55:51;54.00;;;29.73;;
41693;SDS011;27377;50.666;9.150;2024-01-11T11:58:36;53.17;;;28.55;;
41693;SDS011;27377;50.666;9.150;2024-01-11T12:01:21;55.35;;;30.20;;
41693;SDS011;27377;50.666;9.150;2024-01-11T12:04:05;53.00;;;28.75;;
41693;SDS011;27377;50.666;9.150;2024-01-11T12:06:52;54.42;;;29.83;;
41693;SDS011;27377;50.666;9.150;2024-01-11T12:09:37;52.97;;;29.58;;
41693;SDS011;27377;50.666;9.150;2024-01-11T12:12:21;53.95;;;29.67;;
41693;SDS011;27377;50.666;9.150;2024-01-11T12:15:06;49.92;;;28.33;;
41693;SDS011;27377;50.666;9.150;2024-01-11T12:17:56;54.92;;;30.42;;
41693;SDS011;27377;50.666;9.150;2024-01-11T12:20:41;55.45;;;30.38;;
41693;SDS011;27377;50.666;9.150;2024-01-11T12:23:27;53.47;;;29.37;;
41693;SDS011;27377;50.666;9.150;2024-01-11T12:26:13;53.67;;;29.45;;
41693;SDS011;27377;50.666;9.150;2024-01-11T12:28:58;52.22;;;28.40;;
41693;SDS011;27377;50.666;9.150;2024-01-11T12:31:43;51.73;;;28.43;;
41693;SDS011;27377;50.666;9.150;2024-01-11T12:34:27;53.80;;;29.20;;
41693;SDS011;27377;50.666;9.150;2024-01-11T12:37:12;51.58;;;28.65;;
41693;SDS011;27377;50.666;9.150;2024-01-11T12:39:57;49.97;;;28.48;;
41693;SDS011;27377;50.666;9.150;2024-01-11T12:42:42;52.20;;;28.48;;
41693;SDS011;27377;50.666;9.150;2024-01-11T12:45:27;50.17;;;27.42;;
41693;SDS011;27377;50.666;9.150;2024-01-11T12:48:12;49.30;;;27.55;;
41693;SDS011;27377;50.666;9.150;2024-01-11T12:50:58;50.55;;;26.92;;
41693;SDS011;27377;50.666;9.150;2024-01-11T12:53:44;48.63;;;26.65;;
41693;SDS011;27377;50.666;9.150;2024-01-11T12:56:29;46.88;;;25.83;;
41693;SDS011;27377;50.666;9.150;2024-01-11T12:59:13;42.13;;;23.70;;
41693;SDS011;27377;50.666;9.150;2024-01-11T13:01:59;37.95;;;22.40;;
41693;SDS011;27377;50.666;9.150;2024-01-11T13:04:43;39.10;;;22.53;;
41693;SDS011;27377;50.666;9.150;2024-01-11T13:07:33;40.95;;;22.48;;
41693;SDS011;27377;50.666;9.150;2024-01-11T13:10:17;39.83;;;21.88;;
41693;SDS011;27377;50.666;9.150;2024-01-11T13:13:01;37.05;;;21.27;;
41693;SDS011;27377;50.666;9.150;2024-01-11T13:15:46;36.75;;;20.52;;
41693;SDS011;27377;50.666;9.150;2024-01-11T13:18:34;35.63;;;20.03;;
41693;SDS011;27377;50.666;9.150;2024-01-11T13:21:18;34.60;;;19.83;;
41693;SDS011;27377;50.666;9.150;2024-01-11T13:24:02;36.30;;;20.23;;
41693;SDS011;27377;50.666;9.150;2024-01-11T13:26:47;33.80;;;18.80;;
41693;SDS011;27377;50.666;9.150;2024-01-11T13:29:32;35.65;;;19.52;;
41693;SDS011;27377;50.666;9.150;2024-01-11T13:32:16;37.55;;;19.95;;
41693;SDS011;27377;50.666;9.150;2024-01-11T13:35:00;33.13;;;19.02;;
41693;SDS011;27377;50.666;9.150;2024-01-11T13:37:44;34.67;;;19.20;;
41693;SDS011;27377;50.666;9.150;2024-01-11T13:40:29;34.47;;;19.30;;
41693;SDS011;27377;50.666;9.150;2024-01-11T13:43:13;31.83;;;18.13;;
41693;SDS011;27377;50.666;9.150;2024-01-11T13:45:57;32.70;;;18.67;;
41693;SDS011;27377;50.666;9.150;2024-01-11T13:48:41;32.88;;;17.90;;
41693;SDS011;27377;50.666;9.150;2024-01-11T13:51:26;31.48;;;17.75;;
41693;SDS011;27377;50.666;9.150;2024-01-11T13:54:10;33.00;;;17.95;;
41693;SDS011;27377;50.666;9.150;2024-01-11T13:56:54;29.77;;;16.55;;
41693;SDS011;27377;50.666;9.150;2024-01-11T13:59:38;30.13;;;16.42;;
41693;SDS011;27377;50.666;9.150;2024-01-11T14:02:23;28.73;;;16.03;;
41693;SDS011;27377;50.666;9.150;2024-01-11T14:05:07;27.25;;;15.65;;
41693;SDS011;27377;50.666;9.150;2024-01-11T14:07:55;26.63;;;15.23;;
41693;SDS011;27377;50.666;9.150;2024-01-11T14:10:42;27.70;;;15.23;;
41693;SDS011;27377;50.666;9.150;2024-01-11T14:13:27;25.60;;;14.48;;
41693;SDS011;27377;50.666;9.150;2024-01-11T14:16:11;26.47;;;14.53;;
41693;SDS011;27377;50.666;9.150;2024-01-11T14:18:56;23.00;;;13.47;;
41693;SDS011;27377;50.666;9.150;2024-01-11T14:21:41;24.52;;;13.55;;
41693;SDS011;27377;50.666;9.150;2024-01-11T14:24:24;23.23;;;13.03;;
41693;SDS011;27377;50.666;9.150;2024-01-11T14:27:09;23.92;;;12.52;;
41693;SDS011;27377;50.666;9.150;2024-01-11T14:29:53;22.88;;;12.65;;
41693;SDS011;27377;50.666;9.150;2024-01-11T14:32:37;23.83;;;13.13;;
41693;SDS011;27377;50.666;9.150;2024-01-11T14:35:22;22.65;;;12.82;;
41693;SDS011;27377;50.666;9.150;2024-01-11T14:38:06;24.50;;;12.98;;
41693;SDS011;27377;50.666;9.150;2024-01-11T14:40:50;22.02;;;12.82;;
41693;SDS011;27377;50.666;9.150;2024-01-11T14:43:35;23.35;;;13.10;;
41693;SDS011;27377;50.666;9.150;2024-01-11T14:46:19;22.00;;;12.90;;
41693;SDS011;27377;50.666;9.150;2024-01-11T14:49:03;21.67;;;12.30;;
41693;SDS011;27377;50.666;9.150;2024-01-11T14:51:48;22.55;;;12.40;;
41693;SDS011;27377;50.666;9.150;2024-01-11T14:54:32;21.83;;;12.07;;
41693;SDS011;27377;50.666;9.150;2024-01-11T14:57:16;21.97;;;11.87;;
41693;SDS011;27377;50.666;9.150;2024-01-11T15:00:01;22.83;;;12.95;;
41693;SDS011;27377;50.666;9.150;2024-01-11T15:02:45;21.50;;;12.20;;
41693;SDS011;27377;50.666;9.150;2024-01-11T15:05:30;20.50;;;12.00;;
41693;SDS011;27377;50.666;9.150;2024-01-11T15:08:15;22.05;;;11.70;;
41693;SDS011;27377;50.666;9.150;2024-01-11T15:10:59;24.07;;;12.20;;
41693;SDS011;27377;50.666;9.150;2024-01-11T15:13:43;23.52;;;12.02;;
41693;SDS011;27377;50.666;9.150;2024-01-11T15:16:26;22.38;;;11.85;;
41693;SDS011;27377;50.666;9.150;2024-01-11T15:19:12;21.67;;;11.43;;
41693;SDS011;27377;50.666;9.150;2024-01-11T15:21:57;20.75;;;10.57;;
41693;SDS011;27377;50.666;9.150;2024-01-11T15:24:41;17.27;;;10.00;;
41693;SDS011;27377;50.666;9.150;2024-01-11T15:27:26;19.60;;;10.40;;
41693;SDS011;27377;50.666;9.150;2024-01-11T15:30:13;19.35;;;10.75;;
41693;SDS011;27377;50.666;9.150;2024-01-11T15:32:58;19.67;;;10.37;;
41693;SDS011;27377;50.666;9.150;2024-01-11T15:35:44;17.52;;;9.68;;
41693;SDS011;27377;50.666;9.150;2024-01-11T15:38:28;18.02;;;9.95;;
41693;SDS011;27377;50.666;9.150;2024-01-11T15:41:12;16.73;;;10.02;;
41693;SDS011;27377;50.666;9.150;2024-01-11T15:43:57;17.57;;;9.53;;
41693;SDS011;27377;50.666;9.150;2024-01-11T15:46:41;18.77;;;10.40;;
41693;SDS011;27377;50.666;9.150;2024-01-11T15:49:25;20.35;;;10.85;;
41693;SDS011;27377;50.666;9.150;2024-01-11T15:52:10;17.90;;;10.45;;
41693;SDS011;27377;50.666;9.150;2024-01-11T15:54:55;17.88;;;10.23;;
41693;SDS011;27377;50.666;9.150;2024-01-11T15:57:39;18.70;;;10.60;;
41693;SDS011;27377;50.666;9.150;2024-01-11T16:00:23;18.95;;;10.07;;
41693;SDS011;27377;50.666;9.150;2024-01-11T16:03:07;18.08;;;9.95;;
41693;SDS011;27377;50.666;9.150;2024-01-11T16:05:52;18.25;;;10.57;;
41693;SDS011;27377;50.666;9.150;2024-01-11T16:08:37;19.27;;;11.02;;